createdAt,value
2023-04-10T00:02:23.009Z,5.30
2023-04-10T00:07:26.732Z,5.40
2023-04-10T00:12:29.751Z,5.30
2023-04-10T00:17:32.307Z,5.40
2023-04-10T00:22:34.859Z,5.10
2023-04-10T00:27:37.387Z,5.10
2023-04-10T00:32:40.172Z,5.00
2023-04-10T00:37:42.924Z,5.20
2023-04-10T00:42:45.697Z,5.10
2023-04-10T00:47:48.546Z,5.10
2023-04-10T00:52:51.869Z,5.00
2023-04-10T00:57:56.779Z,5.20
2023-04-10T01:03:01.775Z,5.10
2023-04-10T01:08:36.731Z,5.00
2023-04-10T01:13:51.037Z,5.30
2023-04-10T01:19:32.737Z,5.40
2023-04-10T01:25:08.005Z,5.50
2023-04-10T01:30:17.939Z,5.60
2023-04-10T01:35:21.698Z,5.70
2023-04-10T01:40:26.740Z,5.80
2023-04-10T01:45:29.666Z,6.00
2023-04-10T01:50:32.997Z,6.10
2023-04-10T01:55:37.811Z,6.20
2023-04-10T02:00:44.161Z,6.30
2023-04-10T02:06:16.238Z,6.40
2023-04-10T02:11:25.057Z,6.40
2023-04-10T02:16:29.783Z,6.50
2023-04-10T02:21:34.641Z,6.60
2023-04-10T02:26:53.624Z,6.60
2023-04-10T02:31:56.540Z,6.70
2023-04-10T02:36:59.145Z,6.80
2023-04-10T02:42:05.165Z,6.80
2023-04-10T02:47:08.244Z,6.80
2023-04-10T02:52:13.232Z,6.90
2023-04-10T02:57:17.007Z,6.90
2023-04-10T03:02:19.851Z,6.90
2023-04-10T03:07:22.987Z,6.90
2023-04-10T03:12:25.627Z,6.90
2023-04-10T03:17:28.205Z,6.90
2023-04-10T03:22:33.295Z,7.00
2023-04-10T03:27:36.534Z,7.10
2023-04-10T03:32:42.427Z,7.10
2023-04-10T03:37:45.349Z,7.00
2023-04-10T03:42:47.974Z,7.00
2023-04-10T03:47:52.570Z,7.10
2023-04-10T03:52:56.307Z,7.10
2023-04-10T03:58:00.979Z,7.10
2023-04-10T04:03:05.700Z,7.10
2023-04-10T04:08:26.865Z,7.10
2023-04-10T04:13:48.237Z,7.10
2023-04-10T04:19:03.830Z,7.20
2023-04-10T04:24:14.224Z,7.10
2023-04-10T04:29:31.241Z,7.10
2023-04-10T04:35:06.777Z,7.10
2023-04-10T04:40:32.247Z,7.10
2023-04-10T04:46:07.410Z,7.20
2023-04-10T04:51:48.146Z,7.20
2023-04-10T04:57:10.806Z,7.20
2023-04-10T05:02:45.543Z,7.20
2023-04-10T05:08:07.104Z,7.20
2023-04-10T05:13:35.776Z,7.20
2023-04-10T05:19:04.902Z,7.10
2023-04-10T05:24:26.509Z,7.20
2023-04-10T05:29:47.608Z,7.20
2023-04-10T05:35:19.461Z,7.20
2023-04-10T05:40:39.327Z,7.20
2023-04-10T05:46:00.440Z,7.20
2023-04-10T05:51:18.640Z,7.20
2023-04-10T05:56:41.453Z,7.30
2023-04-10T06:02:02.928Z,7.30
2023-04-10T06:07:06.314Z,7.30
2023-04-10T06:12:09.143Z,7.30
2023-04-10T06:17:14.214Z,7.30
2023-04-10T06:22:17.568Z,7.30
2023-04-10T06:27:20.554Z,7.40
2023-04-10T06:32:23.353Z,7.40
2023-04-10T06:37:31.590Z,7.40
2023-04-10T06:42:36.517Z,7.50
2023-04-10T06:47:51.663Z,7.50
2023-04-10T06:52:56.195Z,7.50
2023-04-10T06:57:58.975Z,7.60
2023-04-10T07:03:02.297Z,7.70
2023-04-10T07:08:05.067Z,7.70
2023-04-10T07:13:07.835Z,7.70
2023-04-10T07:18:10.555Z,7.70
2023-04-10T07:23:13.531Z,7.80
2023-04-10T07:28:16.106Z,7.80
2023-04-10T07:33:19.137Z,7.70
2023-04-10T07:38:22.603Z,7.80
2023-04-10T07:43:25.814Z,7.80
2023-04-10T07:48:28.481Z,7.80
2023-04-10T07:53:31.479Z,7.80
2023-04-10T07:58:34.221Z,7.90
2023-04-10T08:03:44.903Z,7.90
2023-04-10T08:08:48.237Z,7.90
2023-04-10T08:13:52.322Z,7.90
2023-04-10T08:18:57.737Z,7.90
2023-04-10T08:24:02.624Z,8.00
2023-04-10T08:29:05.446Z,8.10
2023-04-10T08:34:08.383Z,8.20
2023-04-10T08:39:11.128Z,8.30
2023-04-10T08:44:13.955Z,8.30
2023-04-10T08:49:23.581Z,8.30
2023-04-10T08:54:32.394Z,8.40
2023-04-10T08:59:35.279Z,8.40
2023-04-10T09:04:38.032Z,8.40
2023-04-10T09:09:41.036Z,8.30
2023-04-10T09:14:44.116Z,8.40
2023-04-10T09:19:49.048Z,8.40
2023-04-10T09:24:52.191Z,8.40
2023-04-10T09:29:54.979Z,8.50
2023-04-10T09:34:59.663Z,8.70
2023-04-10T09:40:03.149Z,8.70
2023-04-10T09:45:06.286Z,8.70
2023-04-10T09:50:09.120Z,9.00
2023-04-10T09:55:17.724Z,9.00
2023-04-10T10:00:21.199Z,9.10
2023-04-10T10:05:28.353Z,9.00
2023-04-10T10:10:31.522Z,9.30
2023-04-10T10:15:46.312Z,9.30
2023-04-10T10:20:50.724Z,9.30
2023-04-10T10:25:55.230Z,9.30
2023-04-10T10:30:58.416Z,9.30
2023-04-10T10:36:01.882Z,9.40
2023-04-10T10:41:21.953Z,9.50
2023-04-10T10:46:58.106Z,9.50
2023-04-10T10:52:00.857Z,9.60
2023-04-10T10:57:09.500Z,10.20
2023-04-10T11:02:19.942Z,10.80
2023-04-10T11:07:42.837Z,10.20
2023-04-10T11:13:18.571Z,10.20
2023-04-10T11:18:41.259Z,10.30
2023-04-10T11:23:58.827Z,10.20
2023-04-10T11:29:02.784Z,10.10
2023-04-10T11:34:08.139Z,10.50
2023-04-10T11:39:19.310Z,10.40
2023-04-10T11:44:35.650Z,10.20
2023-04-10T11:49:38.422Z,10.40
2023-04-10T11:54:49.460Z,10.60
2023-04-10T11:59:52.272Z,10.80
2023-04-10T12:04:59.469Z,11.20
2023-04-10T12:10:02.482Z,11.50
2023-04-10T12:15:30.509Z,11.50
2023-04-10T12:20:33.859Z,12.00
2023-04-10T12:25:36.880Z,12.60
2023-04-10T12:30:50.929Z,12.50
2023-04-10T12:35:54.624Z,11.90
2023-04-10T12:41:01.318Z,11.60
2023-04-10T12:46:05.474Z,13.30
2023-04-10T12:51:08.475Z,13.30
2023-04-10T12:56:12.590Z,13.80
2023-04-10T13:01:15.711Z,15.90
2023-04-10T13:06:18.826Z,14.80
2023-04-10T13:11:23.354Z,14.30
2023-04-10T13:16:26.172Z,14.20
2023-04-10T13:21:30.031Z,14.80
2023-04-10T13:26:32.704Z,14.00
2023-04-10T13:31:35.667Z,14.30
2023-04-10T13:36:38.629Z,14.70
2023-04-10T13:41:41.579Z,14.20
2023-04-10T13:46:44.407Z,14.60
2023-04-10T13:51:47.932Z,14.50
2023-04-10T13:56:50.924Z,14.20
2023-04-10T14:01:54.034Z,14.10
2023-04-10T14:07:00.258Z,15.30
2023-04-10T14:12:03.529Z,15.10
2023-04-10T14:17:06.659Z,14.20
2023-04-10T14:22:09.625Z,14.50
2023-04-10T14:27:13.533Z,15.30
2023-04-10T14:32:16.615Z,15.30
2023-04-10T14:37:19.500Z,15.70
2023-04-10T14:42:24.014Z,15.60
2023-04-10T14:47:27.088Z,15.50
2023-04-10T14:52:30.459Z,15.60
2023-04-10T14:57:33.291Z,16.30
2023-04-10T15:02:36.322Z,15.60
2023-04-10T15:07:39.263Z,15.80
2023-04-10T15:12:42.852Z,15.90
2023-04-10T15:17:45.645Z,16.40
2023-04-10T15:22:48.499Z,15.50
2023-04-10T15:27:51.414Z,14.60
2023-04-10T15:32:54.469Z,13.80
2023-04-10T15:38:00.569Z,13.00
2023-04-10T15:43:03.460Z,12.70
2023-04-10T15:48:06.986Z,12.60
2023-04-10T15:53:10.681Z,12.40
2023-04-10T15:58:13.498Z,12.00
2023-04-10T16:03:16.491Z,11.90
2023-04-10T16:08:20.107Z,11.80
2023-04-10T16:13:23.191Z,11.80
2023-04-10T16:18:26.142Z,11.80
2023-04-10T16:23:28.991Z,11.70
2023-04-10T16:28:31.938Z,11.70
2023-04-10T16:33:34.981Z,11.60
2023-04-10T16:38:37.933Z,11.40
2023-04-10T16:43:40.964Z,11.30
2023-04-10T16:48:44.308Z,11.20
2023-04-10T16:53:47.205Z,11.00
2023-04-10T16:58:50.115Z,10.80
2023-04-10T17:03:53.612Z,10.70
2023-04-10T17:08:56.912Z,10.70
2023-04-10T17:14:00.297Z,10.80
2023-04-10T17:19:03.397Z,10.80
2023-04-10T17:24:06.369Z,10.70
2023-04-10T17:29:09.221Z,10.70
2023-04-10T17:34:11.943Z,10.50
2023-04-10T17:39:14.850Z,10.50
2023-04-10T17:44:17.912Z,10.40
2023-04-10T17:49:24.063Z,10.40
2023-04-10T17:54:26.858Z,10.40
2023-04-10T17:59:32.785Z,10.40
2023-04-10T18:04:35.637Z,10.50
2023-04-10T18:09:38.444Z,10.20
2023-04-10T18:14:43.104Z,9.70
2023-04-10T18:19:45.919Z,8.60
2023-04-10T18:24:49.201Z,8.20
2023-04-10T18:29:51.874Z,8.20
2023-04-10T18:34:54.650Z,8.20
2023-04-10T18:40:00.979Z,8.00
2023-04-10T18:45:07.160Z,7.90
2023-04-10T18:50:11.853Z,7.80
2023-04-10T18:55:15.021Z,7.80
2023-04-10T19:00:17.900Z,7.90
2023-04-10T19:05:20.558Z,7.80
2023-04-10T19:10:23.356Z,7.60
2023-04-10T19:15:26.367Z,7.60
2023-04-10T19:20:51.106Z,7.60
2023-04-10T19:25:54.511Z,7.60
2023-04-10T19:30:57.763Z,7.60
2023-04-10T19:36:00.613Z,7.60
2023-04-10T19:41:03.645Z,7.50
2023-04-10T19:46:16.860Z,7.40
2023-04-10T19:51:19.819Z,7.30
2023-04-10T19:56:22.901Z,7.30
2023-04-10T20:01:25.870Z,7.10
2023-04-10T20:06:28.996Z,6.80
2023-04-10T20:11:31.909Z,6.70
2023-04-10T20:16:35.223Z,6.60
2023-04-10T20:21:38.179Z,6.70
2023-04-10T20:26:40.863Z,6.50
2023-04-10T20:31:44.360Z,6.30
2023-04-10T20:36:47.142Z,6.40
2023-04-10T20:41:49.917Z,6.30
2023-04-10T20:46:52.868Z,6.30
2023-04-10T20:51:56.004Z,6.30
2023-04-10T20:57:00.316Z,6.40
2023-04-10T21:02:03.239Z,6.10
2023-04-10T21:07:05.941Z,5.90
2023-04-10T21:12:08.672Z,6.00
2023-04-10T21:17:11.394Z,5.70
2023-04-10T21:22:14.217Z,5.80
2023-04-10T21:27:17.009Z,5.70
2023-04-10T21:32:19.947Z,5.60
2023-04-10T21:37:22.758Z,5.30
2023-04-10T21:42:25.506Z,5.40
2023-04-10T21:47:28.442Z,5.40
2023-04-10T21:52:32.457Z,5.30
2023-04-10T21:57:35.252Z,5.00
2023-04-10T22:02:38.183Z,5.30
2023-04-10T22:07:41.153Z,5.20
2023-04-10T22:12:46.006Z,5.10
2023-04-10T22:17:50.706Z,5.00
2023-04-10T22:22:53.845Z,5.10
2023-04-10T22:27:58.066Z,4.90
2023-04-10T22:33:00.777Z,4.80
2023-04-10T22:38:07.857Z,4.80
2023-04-10T22:43:11.263Z,4.70
2023-04-10T22:48:14.080Z,4.60
2023-04-10T22:53:17.015Z,4.70
2023-04-10T22:58:19.806Z,4.60
2023-04-10T23:03:22.656Z,4.60
2023-04-10T23:08:25.317Z,4.80
2023-04-10T23:13:28.172Z,4.60
2023-04-10T23:18:30.818Z,4.50
2023-04-10T23:23:33.462Z,4.60
2023-04-10T23:28:36.175Z,4.50
2023-04-10T23:33:38.941Z,4.50
2023-04-10T23:38:41.844Z,4.50
2023-04-10T23:43:45.280Z,4.40
2023-04-10T23:48:47.990Z,4.60
2023-04-10T23:53:50.921Z,4.50
2023-04-10T23:58:53.837Z,4.40
